Time;durP1;ratioP1;P1;durP2;ratioP2;P2;SDS_P1;SDS_P2;PMS_P1;PMS_P2;Temp;Humidity;BMP_temperature;BMP_pressure;BME280_temperature;BME280_humidity;BME280_pressure;Samples;Min_cycle;Max_cycle;Signal;HPM_P1;HPM_P2
2023/04/07 00:01:05;;;;;;;13.55;7.88;;;8.10;99.90;;;;;;5037199;28;20048;-73
2023/04/07 00:03:31;;;;;;;12.40;7.13;;;8.10;99.90;;;;;;5017509;28;20598;-73
2023/04/07 00:05:56;;;;;;;16.13;6.70;;;8.20;99.90;;;;;;5019120;28;20041;-73
2023/04/07 00:08:22;;;;;;;12.73;6.30;;;8.10;99.90;;;;;;5034622;28;20103;-72
2023/04/07 00:10:48;;;;;;;12.63;6.45;;;8.10;99.90;;;;;;5019429;28;20044;-73
2023/04/07 00:13:14;;;;;;;10.88;6.15;;;8.20;99.90;;;;;;5034642;28;20084;-72
2023/04/07 00:15:39;;;;;;;9.40;6.00;;;8.10;99.90;;;;;;5032339;28;20075;-71
2023/04/07 00:18:05;;;;;;;9.35;6.25;;;8.10;99.90;;;;;;5021871;28;20056;-73
2023/04/07 00:20:31;;;;;;;9.70;6.03;;;8.10;99.90;;;;;;5021728;28;20103;-72
2023/04/07 00:22:57;;;;;;;8.63;5.50;;;8.10;99.90;;;;;;5051198;28;20041;-73
2023/04/07 00:25:25;;;;;;;9.57;5.80;;;8.10;99.90;;;;;;5035375;28;20099;-72
2023/04/07 00:27:53;;;;;;;12.35;6.07;;;8.10;99.90;;;;;;5004784;28;20051;-73
2023/04/07 00:30:24;;;;;;;10.45;5.97;;;8.10;99.90;;;;;;5048365;28;20071;-71
2023/04/07 00:32:56;;;;;;;12.90;6.60;;;8.10;99.90;;;;;;5032579;28;20051;-72
2023/04/07 00:35:21;;;;;;;12.52;5.75;;;8.00;99.90;;;;;;5016803;28;20598;-72
2023/04/07 00:37:47;;;;;;;11.98;6.00;;;8.10;99.90;;;;;;5031881;28;20057;-72
2023/04/07 00:40:13;;;;;;;15.85;6.20;;;8.00;99.90;;;;;;5031572;28;20045;-72
2023/04/07 00:42:39;;;;;;;13.23;6.22;;;8.00;99.90;;;;;;5003394;28;20046;-72
2023/04/07 00:45:05;;;;;;;10.90;5.95;;;8.00;99.90;;;;;;5019143;28;20453;-71
2023/04/07 00:47:31;;;;;;;8.70;4.70;;;8.00;99.90;;;;;;5030396;28;20372;-71
2023/04/07 00:50:02;;;;;;;12.73;5.03;;;8.00;99.90;;;;;;5045089;28;20049;-71
2023/04/07 00:52:28;;;;;;;9.70;4.80;;;8.00;99.90;;;;;;5030626;28;20056;-72
2023/04/07 00:54:54;;;;;;;10.23;4.78;;;8.00;99.90;;;;;;5044204;28;20060;-71
2023/04/07 00:57:22;;;;;;;10.35;5.00;;;8.00;99.90;;;;;;4999529;28;20049;-71
2023/04/07 00:59:50;;;;;;;12.95;4.97;;;8.00;99.90;;;;;;5030150;28;20163;-71
2023/04/07 01:02:28;;;;;;;10.05;4.72;;;8.00;99.90;;;;;;5012483;28;20286;-71
2023/04/07 01:05:01;;;;;;;10.98;4.70;;;8.00;99.90;;;;;;5025433;28;20049;-71
2023/04/07 01:07:42;;;;;;;9.80;5.00;;;8.00;99.90;;;;;;5027859;28;20041;-71
2023/04/07 01:10:18;;;;;;;11.43;5.57;;;8.00;99.90;;;;;;5028254;28;20099;-71
2023/04/07 01:12:56;;;;;;;12.00;5.60;;;8.00;99.90;;;;;;5012460;28;20061;-71
2023/04/07 01:15:30;;;;;;;11.18;5.18;;;8.00;99.90;;;;;;5014810;28;20052;-72
2023/04/07 01:18:07;;;;;;;17.42;5.68;;;8.00;99.90;;;;;;5010209;28;20068;-73
2023/04/07 01:20:35;;;;;;;14.13;6.55;;;8.00;99.90;;;;;;5046274;28;20056;-72
2023/04/07 01:23:05;;;;;;;14.60;5.85;;;8.00;99.90;;;;;;5045965;28;20167;-71
2023/04/07 01:26:06;;;;;;;14.38;5.15;;;8.00;99.90;;;;;;5028603;28;20472;-72
2023/04/07 01:28:43;;;;;;;14.63;6.40;;;8.00;99.90;;;;;;5033310;28;20049;-74
2023/04/07 01:31:13;;;;;;;18.95;6.50;;;8.00;99.90;;;;;;5045945;28;20058;-73
2023/04/07 01:33:41;;;;;;;15.57;6.82;;;8.00;99.90;;;;;;5029324;28;20040;-72
2023/04/07 01:36:15;;;;;;;18.67;6.55;;;8.00;99.90;;;;;;5043431;28;20064;-72
2023/04/07 01:38:42;;;;;;;16.10;6.05;;;8.00;99.90;;;;;;5028027;28;20061;-72
2023/04/07 01:41:18;;;;;;;17.23;5.72;;;8.00;99.90;;;;;;5029537;28;20057;-72
2023/04/07 01:43:46;;;;;;;11.18;6.07;;;8.00;99.90;;;;;;5011926;28;20045;-71
2023/04/07 01:46:12;;;;;;;12.70;5.38;;;8.00;99.90;;;;;;5042963;28;20060;-72
2023/04/07 01:48:39;;;;;;;11.43;5.90;;;8.00;99.90;;;;;;5014354;28;20073;-73
2023/04/07 01:51:06;;;;;;;16.00;6.50;;;8.00;99.90;;;;;;5026480;28;20049;-73
2023/04/07 01:53:36;;;;;;;14.98;6.10;;;8.00;99.90;;;;;;5029678;28;20050;-72
2023/04/07 01:56:03;;;;;;;14.60;7.68;;;8.00;99.90;;;;;;5031780;28;20041;-72
2023/04/07 01:58:29;;;;;;;17.05;8.07;;;8.00;99.90;;;;;;5026660;28;20250;-72
2023/04/07 02:00:55;;;;;;;20.95;9.50;;;8.00;99.90;;;;;;5028356;28;20391;-72
2023/04/07 02:03:30;;;;;;;17.15;9.45;;;8.00;99.90;;;;;;5013168;28;20045;-71
2023/04/07 02:06:05;;;;;;;19.92;9.23;;;8.00;99.90;;;;;;5027884;28;20148;-73
2023/04/07 02:08:32;;;;;;;23.30;9.40;;;8.00;99.90;;;;;;5043297;28;21336;-71
2023/04/07 02:11:02;;;;;;;20.38;10.73;;;8.00;99.90;;;;;;5014609;28;20049;-73
2023/04/07 02:13:29;;;;;;;25.20;11.40;;;8.10;99.90;;;;;;5032962;28;20403;-72
2023/04/07 02:15:56;;;;;;;32.20;13.18;;;8.10;99.90;;;;;;5048228;28;20145;-73
2023/04/07 02:18:26;;;;;;;29.27;12.48;;;8.10;99.90;;;;;;5034235;28;20056;-71
2023/04/07 02:20:52;;;;;;;27.40;13.43;;;8.10;99.90;;;;;;5032904;28;20079;-72
2023/04/07 02:23:21;;;;;;;38.10;13.50;;;8.10;99.90;;;;;;5036974;28;20041;-73
2023/04/07 02:25:47;;;;;;;39.83;13.57;;;8.10;99.90;;;;;;5031815;28;20064;-71
2023/04/07 02:28:13;;;;;;;45.13;13.75;;;8.10;99.90;;;;;;5017320;28;20376;-74
2023/04/07 02:30:40;;;;;;;41.20;13.50;;;8.10;99.90;;;;;;5031607;28;20057;-73
2023/04/07 02:33:06;;;;;;;45.80;15.65;;;8.10;99.90;;;;;;5032358;28;20048;-72
2023/04/07 02:35:32;;;;;;;55.63;15.00;;;8.20;99.90;;;;;;5003984;28;20045;-71
2023/04/07 02:37:58;;;;;;;50.85;14.23;;;8.10;99.90;;;;;;5032363;28;20056;-71
2023/04/07 02:40:24;;;;;;;58.50;15.30;;;8.20;99.90;;;;;;5030836;28;20041;-73
2023/04/07 02:42:49;;;;;;;41.15;15.27;;;8.20;99.90;;;;;;5030566;28;20181;-74
2023/04/07 02:45:15;;;;;;;32.45;12.93;;;8.20;99.90;;;;;;5016342;28;20486;-71
2023/04/07 02:47:41;;;;;;;37.78;12.63;;;8.10;99.90;;;;;;5029590;28;20465;-72
2023/04/07 02:50:08;;;;;;;43.50;14.27;;;8.20;99.90;;;;;;5018727;28;20052;-73
2023/04/07 02:52:35;;;;;;;39.85;13.30;;;8.20;99.90;;;;;;5003047;28;20045;-74
2023/04/07 02:55:01;;;;;;;42.90;13.55;;;8.10;99.90;;;;;;5029820;28;20136;-71
2023/04/07 02:57:30;;;;;;;39.58;14.02;;;8.20;99.90;;;;;;5031225;28;20373;-73
2023/04/07 02:59:57;;;;;;;52.83;14.48;;;8.20;99.90;;;;;;5030674;28;20123;-72
2023/04/07 03:02:23;;;;;;;50.40;15.90;;;8.10;99.90;;;;;;4997197;28;20091;-73
2023/04/07 03:04:51;;;;;;;40.55;14.23;;;8.10;99.90;;;;;;5032061;28;20168;-72
2023/04/07 03:07:17;;;;;;;40.55;14.98;;;8.10;99.90;;;;;;5030633;28;20057;-71
2023/04/07 03:09:43;;;;;;;37.75;15.25;;;8.10;99.90;;;;;;5004045;28;20052;-72
2023/04/07 03:12:10;;;;;;;34.40;15.00;;;8.10;99.90;;;;;;5017072;28;20083;-72
2023/04/07 03:14:36;;;;;;;34.03;14.55;;;8.10;99.90;;;;;;5014740;28;20542;-72
2023/04/07 03:17:03;;;;;;;33.97;15.00;;;8.10;99.90;;;;;;5033035;28;20315;-73
2023/04/07 03:19:29;;;;;;;32.47;15.52;;;8.10;99.90;;;;;;5030454;28;20049;-72
2023/04/07 03:21:58;;;;;;;32.28;14.63;;;8.10;99.90;;;;;;5046519;28;20483;-72
2023/04/07 03:24:23;;;;;;;33.92;15.88;;;8.10;99.90;;;;;;5014600;28;20042;-72
2023/04/07 03:26:50;;;;;;;36.58;16.60;;;8.10;99.90;;;;;;5015884;28;20056;-71
2023/04/07 03:29:16;;;;;;;29.33;13.82;;;8.10;99.90;;;;;;5014161;28;20230;-73
2023/04/07 03:31:42;;;;;;;26.33;13.25;;;8.10;99.90;;;;;;5012027;28;20115;-73
2023/04/07 03:34:10;;;;;;;29.08;13.07;;;8.10;99.90;;;;;;5016067;28;20510;-71
2023/04/07 03:36:36;;;;;;;29.88;13.32;;;8.00;99.90;;;;;;5031223;28;20052;-72
2023/04/07 03:39:01;;;;;;;35.15;13.57;;;8.00;99.90;;;;;;5035723;28;20041;-72
2023/04/07 03:41:27;;;;;;;39.92;12.30;;;8.00;99.90;;;;;;5030882;28;20206;-72
2023/04/07 03:43:53;;;;;;;35.25;13.13;;;7.90;99.90;;;;;;5032226;28;20049;-73
2023/04/07 03:46:20;;;;;;;42.08;11.23;;;8.00;99.90;;;;;;5011639;28;20064;-71
2023/04/07 03:48:46;;;;;;;35.28;9.65;;;8.00;99.90;;;;;;5028871;28;20498;-72
2023/04/07 03:51:12;;;;;;;62.45;11.93;;;8.00;99.90;;;;;;5016501;28;20040;-72
2023/04/07 03:53:46;;;;;;;75.88;9.38;;;8.00;99.90;;;;;;5014859;28;20045;-73
2023/04/07 03:56:11;;;;;;;71.07;10.45;;;8.00;99.90;;;;;;5028722;28;20049;-73
2023/04/07 03:58:37;;;;;;;38.95;9.18;;;8.00;99.90;;;;;;5015472;28;20057;-71
2023/04/07 04:01:03;;;;;;;42.47;11.13;;;8.10;99.90;;;;;;5012017;28;20181;-71
2023/04/07 04:03:29;;;;;;;38.80;13.02;;;8.10;99.90;;;;;;5013889;28;20076;-71
2023/04/07 04:05:55;;;;;;;41.33;13.57;;;8.10;99.90;;;;;;5031804;28;20092;-72
2023/04/07 04:08:20;;;;;;;36.58;13.70;;;8.10;99.90;;;;;;5003130;28;20095;-71
2023/04/07 04:10:47;;;;;;;37.40;15.48;;;7.50;99.90;;;;;;5031457;28;20561;-72
2023/04/07 04:13:13;;;;;;;41.90;15.23;;;8.10;99.90;;;;;;5012085;28;20053;-71
2023/04/07 04:15:39;;;;;;;37.90;15.10;;;8.00;99.90;;;;;;5014383;28;20072;-75
2023/04/07 04:18:05;;;;;;;37.72;16.00;;;8.10;99.90;;;;;;4984959;28;20148;-76
2023/04/07 04:20:31;;;;;;;42.47;16.95;;;8.10;99.90;;;;;;4982353;28;20426;-73
2023/04/07 04:22:57;;;;;;;38.72;16.58;;;8.10;99.90;;;;;;5004211;28;20057;-72
2023/04/07 04:25:23;;;;;;;46.03;16.60;;;8.10;99.90;;;;;;5001260;28;20044;-72
2023/04/07 04:27:49;;;;;;;37.60;16.60;;;8.10;99.90;;;;;;5033563;28;20049;-72
2023/04/07 04:30:15;;;;;;;40.75;16.20;;;8.10;99.90;;;;;;5018465;28;20078;-72
2023/04/07 04:32:41;;;;;;;46.45;16.35;;;8.10;99.90;;;;;;5017220;28;20065;-72
2023/04/07 04:35:13;;;;;;;37.00;16.38;;;8.10;99.90;;;;;;5017379;28;20092;-71
2023/04/07 04:37:38;;;;;;;36.80;16.70;;;8.10;99.90;;;;;;4980901;28;20187;-72
2023/04/07 04:40:07;;;;;;;43.53;17.83;;;8.10;99.90;;;;;;5011604;28;20041;-73
2023/04/07 04:42:34;;;;;;;43.30;17.23;;;8.10;99.90;;;;;;5013495;28;20106;-75
2023/04/07 04:45:05;;;;;;;50.47;17.73;;;8.10;99.90;;;;;;5028340;28;20083;-73
2023/04/07 04:47:31;;;;;;;45.95;17.05;;;8.10;99.90;;;;;;5013117;28;20087;-73
2023/04/07 04:49:57;;;;;;;44.55;18.42;;;8.10;99.90;;;;;;5029972;28;20064;-73
2023/04/07 04:52:26;;;;;;;46.63;18.58;;;8.10;99.90;;;;;;5030249;28;20052;-75
2023/04/07 04:54:52;;;;;;;46.70;18.80;;;8.10;99.90;;;;;;5028832;28;20045;-73
2023/04/07 04:57:18;;;;;;;50.97;18.40;;;8.10;99.90;;;;;;5011311;28;20097;-73
2023/04/07 04:59:44;;;;;;;51.72;17.98;;;8.10;99.90;;;;;;4998940;28;20041;-73
2023/04/07 05:02:10;;;;;;;58.42;19.30;;;8.10;99.90;;;;;;5028718;28;20699;-74
2023/04/07 05:04:36;;;;;;;57.58;19.58;;;8.10;99.90;;;;;;5012147;28;20053;-75
2023/04/07 05:07:03;;;;;;;54.72;18.83;;;8.10;99.90;;;;;;5012516;28;20600;-72
2023/04/07 05:09:28;;;;;;;60.15;19.00;;;8.10;99.90;;;;;;5029841;28;20128;-74
2023/04/07 05:11:54;;;;;;;64.97;20.85;;;8.10;99.90;;;;;;5015558;28;20057;-73
2023/04/07 05:14:20;;;;;;;52.20;18.52;;;8.10;99.90;;;;;;5032113;28;20246;-74
2023/04/07 05:16:47;;;;;;;53.67;16.85;;;8.10;99.90;;;;;;5016890;28;20049;-73
2023/04/07 05:19:12;;;;;;;60.15;18.15;;;8.10;99.90;;;;;;5033525;28;20060;-74
2023/04/07 05:21:38;;;;;;;58.78;17.15;;;8.10;99.90;;;;;;5028769;28;21943;-75
2023/04/07 05:24:04;;;;;;;72.72;18.30;;;8.10;99.90;;;;;;5027667;28;20053;-73
2023/04/07 05:26:30;;;;;;;53.33;16.40;;;8.10;99.90;;;;;;5028451;28;20441;-74
2023/04/07 05:28:56;;;;;;;55.13;16.33;;;8.10;99.90;;;;;;5027111;28;20053;-74
2023/04/07 05:31:21;;;;;;;47.45;16.55;;;8.10;99.90;;;;;;5015284;28;20064;-74
2023/04/07 05:33:47;;;;;;;69.88;16.88;;;8.10;99.90;;;;;;5011379;28;20060;-72
2023/04/07 05:36:14;;;;;;;59.60;15.90;;;8.10;99.90;;;;;;5030846;28;20502;-72
2023/04/07 05:38:40;;;;;;;82.97;17.40;;;8.10;99.90;;;;;;5027035;28;20151;-74
2023/04/07 05:41:06;;;;;;;54.05;15.77;;;8.20;99.90;;;;;;5014520;28;20110;-74
2023/04/07 05:43:32;;;;;;;52.53;16.83;;;8.20;99.90;;;;;;5015098;28;20045;-72
2023/04/07 05:45:58;;;;;;;48.50;15.60;;;8.20;99.90;;;;;;5017473;28;20047;-73
2023/04/07 05:48:30;;;;;;;72.50;16.13;;;8.10;99.90;;;;;;5049644;28;20067;-73
2023/04/07 05:50:56;;;;;;;48.20;15.68;;;8.20;99.90;;;;;;5031619;28;20442;-76
2023/04/07 05:53:21;;;;;;;67.18;16.10;;;8.20;99.90;;;;;;5029446;28;20057;-72
2023/04/07 05:55:47;;;;;;;63.85;16.20;;;8.20;99.90;;;;;;5016838;28;20399;-73
2023/04/07 05:58:15;;;;;;;68.07;16.60;;;8.20;99.90;;;;;;5035026;28;20073;-75
2023/04/07 06:00:41;;;;;;;57.60;15.63;;;8.20;99.90;;;;;;5016725;28;20049;-75
2023/04/07 06:03:06;;;;;;;51.22;15.57;;;8.20;99.90;;;;;;5046882;28;20407;-74
2023/04/07 06:05:33;;;;;;;58.58;14.85;;;8.20;99.90;;;;;;5036786;28;20048;-75
2023/04/07 06:08:00;;;;;;;54.50;15.73;;;8.20;99.90;;;;;;5039040;28;20496;-76
2023/04/07 06:10:26;;;;;;;42.10;13.40;;;8.20;99.90;;;;;;5040055;28;20049;-75
2023/04/07 06:12:51;;;;;;;45.30;13.40;;;8.30;99.90;;;;;;5038997;28;20122;-72
2023/04/07 06:15:18;;;;;;;47.45;14.00;;;8.30;99.90;;;;;;5040948;28;20045;-75
2023/04/07 06:17:44;;;;;;;41.25;14.00;;;8.30;99.90;;;;;;5042415;28;20443;-74
2023/04/07 06:20:13;;;;;;;53.10;14.52;;;8.40;99.90;;;;;;5041088;28;20155;-74
2023/04/07 06:22:39;;;;;;;44.40;14.82;;;8.30;99.90;;;;;;5037734;28;20049;-72
2023/04/07 06:25:07;;;;;;;48.13;13.93;;;8.40;99.90;;;;;;5040926;28;20115;-74
2023/04/07 06:27:32;;;;;;;47.13;13.30;;;8.40;99.90;;;;;;5025271;28;20051;-71
2023/04/07 06:29:59;;;;;;;43.47;13.63;;;8.50;99.90;;;;;;5040917;28;20041;-74
2023/04/07 06:32:27;;;;;;;42.03;12.27;;;8.50;99.90;;;;;;5052581;28;20049;-73
2023/04/07 06:34:53;;;;;;;43.50;12.63;;;8.50;99.90;;;;;;5055364;28;20045;-72
2023/04/07 06:37:19;;;;;;;42.97;13.40;;;8.60;99.90;;;;;;5038511;28;20048;-72
2023/04/07 06:39:46;;;;;;;55.88;12.27;;;8.60;99.90;;;;;;5007333;28;20714;-74
2023/04/07 06:42:12;;;;;;;39.55;11.93;;;8.60;99.90;;;;;;5038222;28;20124;-73
2023/04/07 06:44:37;;;;;;;42.10;13.32;;;8.60;99.90;;;;;;5023424;28;20395;-73
2023/04/07 06:47:23;;;;;;;41.40;14.48;;;8.60;99.90;;;;;;5027241;28;20089;-73
2023/04/07 06:49:48;;;;;;;50.80;16.30;;;8.60;99.90;;;;;;5038551;28;20488;-72
2023/04/07 06:52:14;;;;;;;53.85;15.93;;;8.60;99.90;;;;;;5029310;28;20064;-75
2023/04/07 06:54:40;;;;;;;52.03;17.02;;;8.60;99.90;;;;;;5028414;28;20041;-72
2023/04/07 06:57:10;;;;;;;57.22;18.58;;;8.60;99.90;;;;;;5042359;28;20509;-73
2023/04/07 06:59:40;;;;;;;54.42;17.55;;;8.60;99.90;;;;;;4992654;28;20123;-73
2023/04/07 07:02:08;;;;;;;49.13;18.85;;;8.60;99.90;;;;;;5036708;28;20195;-73
2023/04/07 07:04:34;;;;;;;49.10;17.77;;;8.60;99.90;;;;;;5038472;28;20474;-72
2023/04/07 07:07:02;;;;;;;43.78;18.50;;;8.60;99.90;;;;;;5021736;28;20064;-73
2023/04/07 07:09:27;;;;;;;48.20;17.77;;;8.60;99.90;;;;;;5020699;28;20048;-73
2023/04/07 07:11:54;;;;;;;50.60;18.20;;;8.60;99.90;;;;;;5036625;28;20989;-72
2023/04/07 07:14:24;;;;;;;53.30;17.55;;;8.60;99.90;;;;;;5039396;28;20052;-72
2023/04/07 07:16:50;;;;;;;48.95;17.42;;;8.60;99.90;;;;;;5021316;28;20041;-72
2023/04/07 07:19:17;;;;;;;50.35;17.67;;;8.60;99.90;;;;;;5008169;28;20153;-73
2023/04/07 07:21:45;;;;;;;50.10;16.85;;;8.60;99.90;;;;;;5019705;28;20507;-71
2023/04/07 07:24:10;;;;;;;62.42;17.27;;;8.60;99.90;;;;;;5017845;28;20041;-70
2023/04/07 07:26:40;;;;;;;53.78;15.23;;;8.60;99.90;;;;;;5035766;28;20054;-71
2023/04/07 07:29:06;;;;;;;42.33;13.98;;;8.60;99.90;;;;;;5035385;28;20041;-72
2023/04/07 07:31:32;;;;;;;41.25;13.65;;;8.70;99.90;;;;;;5026486;28;20063;-74
2023/04/07 07:34:01;;;;;;;45.95;12.43;;;8.70;99.90;;;;;;5024703;28;20045;-71
2023/04/07 07:36:27;;;;;;;44.90;11.55;;;8.80;99.90;;;;;;5040437;28;20049;-73
2023/04/07 07:38:52;;;;;;;37.35;11.60;;;8.70;99.90;;;;;;5040804;28;20056;-73
2023/04/07 07:41:19;;;;;;;37.83;11.63;;;8.70;99.90;;;;;;5042462;28;20036;-73
2023/04/07 07:43:57;;;;;;;39.67;13.40;;;8.80;99.90;;;;;;5041284;28;20052;-74
2023/04/07 07:46:24;;;;;;;32.95;13.77;;;8.80;99.90;;;;;;5036663;28;20051;-73
2023/04/07 07:48:50;;;;;;;31.63;15.93;;;8.80;99.90;;;;;;5042039;28;20076;-73
2023/04/07 07:51:17;;;;;;;25.38;14.77;;;8.80;99.90;;;;;;5039916;28;20049;-74
2023/04/07 07:53:45;;;;;;;24.48;14.90;;;8.70;99.90;;;;;;5036454;28;20118;-71
2023/04/07 07:56:11;;;;;;;25.40;14.27;;;8.70;99.90;;;;;;5019490;28;20044;-72
2023/04/07 07:58:37;;;;;;;24.15;14.25;;;8.70;99.90;;;;;;5037042;28;20188;-73
2023/04/07 08:01:03;;;;;;;21.83;14.02;;;8.70;99.90;;;;;;5037653;28;20057;-73
2023/04/07 08:03:28;;;;;;;19.50;12.57;;;8.70;99.90;;;;;;5042681;28;20394;-72
2023/04/07 08:05:54;;;;;;;23.15;12.65;;;8.70;99.90;;;;;;5011021;28;20045;-72
2023/04/07 08:08:20;;;;;;;18.17;12.30;;;8.70;99.90;;;;;;5026486;28;20123;-72
2023/04/07 08:10:46;;;;;;;19.60;13.43;;;8.70;99.90;;;;;;5039510;28;20053;-72
2023/04/07 08:13:14;;;;;;;19.58;12.70;;;8.70;99.90;;;;;;5007756;28;20083;-74
2023/04/07 08:15:40;;;;;;;18.67;12.88;;;8.70;99.90;;;;;;5006780;28;20044;-72
2023/04/07 08:18:06;;;;;;;20.08;12.55;;;8.70;99.90;;;;;;5037905;28;20503;-71
2023/04/07 08:20:41;;;;;;;18.48;11.95;;;8.70;99.90;;;;;;5036919;28;20144;-72
2023/04/07 08:23:07;;;;;;;18.52;12.20;;;8.70;99.90;;;;;;5006938;28;20124;-72
2023/04/07 08:25:33;;;;;;;20.23;11.98;;;8.70;99.90;;;;;;5036333;28;20553;-73
2023/04/07 08:27:59;;;;;;;16.88;11.55;;;8.70;99.90;;;;;;5024113;28;20091;-73
2023/04/07 08:30:25;;;;;;;18.17;11.93;;;8.70;99.90;;;;;;5021575;28;20491;-73
2023/04/07 08:32:51;;;;;;;17.02;11.80;;;8.70;99.90;;;;;;5037622;28;20053;-72
2023/04/07 08:35:21;;;;;;;16.90;11.07;;;8.70;99.90;;;;;;5038120;28;20112;-72
2023/04/07 08:37:47;;;;;;;18.10;11.48;;;8.70;99.90;;;;;;5037604;28;20102;-73
2023/04/07 08:40:14;;;;;;;17.60;12.35;;;8.70;99.90;;;;;;5039929;28;20044;-73
2023/04/07 08:42:42;;;;;;;16.92;12.05;;;8.70;99.90;;;;;;5038069;28;20045;-72
2023/04/07 08:45:21;;;;;;;16.42;11.38;;;8.70;99.90;;;;;;5039138;28;20270;-73
2023/04/07 08:47:52;;;;;;;17.38;11.50;;;8.70;99.90;;;;;;5029365;28;20135;-71
2023/04/07 08:50:19;;;;;;;15.27;10.88;;;8.70;99.90;;;;;;5021914;28;20052;-73
2023/04/07 08:52:54;;;;;;;17.73;11.50;;;8.70;99.90;;;;;;5025254;28;20040;-72
2023/04/07 08:55:19;;;;;;;15.48;10.82;;;8.80;99.90;;;;;;5040938;28;20076;-72
2023/04/07 08:57:47;;;;;;;15.05;11.18;;;8.80;99.90;;;;;;5037199;28;20537;-73
2023/04/07 09:00:16;;;;;;;16.02;11.38;;;8.80;99.90;;;;;;5053934;28;20126;-73
2023/04/07 09:02:44;;;;;;;15.52;10.73;;;8.80;99.90;;;;;;5048812;28;20048;-75
2023/04/07 09:05:11;;;;;;;14.70;10.45;;;8.80;99.90;;;;;;5020346;28;20056;-73
2023/04/07 09:07:42;;;;;;;13.95;10.75;;;8.80;99.90;;;;;;5052073;28;20507;-73
2023/04/07 09:10:08;;;;;;;18.08;11.95;;;8.70;99.90;;;;;;5032003;28;20175;-73
2023/04/07 09:12:38;;;;;;;16.42;11.30;;;8.80;99.90;;;;;;5055443;28;20113;-72
2023/04/07 09:15:06;;;;;;;16.52;11.93;;;8.70;99.90;;;;;;5030918;28;20049;-73
2023/04/07 09:17:32;;;;;;;17.00;11.73;;;8.70;99.90;;;;;;5038420;28;20072;-72
2023/04/07 09:20:02;;;;;;;17.48;11.63;;;8.80;99.90;;;;;;5035320;28;20214;-74
2023/04/07 09:22:41;;;;;;;15.45;11.18;;;8.70;99.90;;;;;;5038403;28;20043;-73
2023/04/07 09:25:15;;;;;;;18.58;12.57;;;8.80;99.90;;;;;;5051456;28;20052;-72
2023/04/07 09:27:54;;;;;;;;;;;8.80;99.90;;;;;;5038677;28;20056;-72
2023/04/07 09:30:20;;;;;;;;;;;8.70;99.90;;;;;;5035290;28;20019;-73
2023/04/07 09:32:45;;;;;;;16.27;11.88;;;8.70;99.90;;;;;;5033131;28;20524;-75
2023/04/07 09:35:11;;;;;;;16.65;12.60;;;8.70;99.90;;;;;;5024231;28;20061;-72
2023/04/07 09:37:41;;;;;;;18.25;12.77;;;8.70;99.90;;;;;;5021150;28;20526;-73
2023/04/07 09:40:31;;;;;;;16.55;11.93;;;8.70;99.90;;;;;;5039929;28;20049;-74
2023/04/07 09:43:00;;;;;;;17.10;12.57;;;;;;;;;;5037096;28;20049;-75
2023/04/07 09:46:10;;;;;;;18.33;13.40;;;8.80;99.90;;;;;;5041761;28;20419;-77
2023/04/07 09:49:07;;;;;;;17.33;12.55;;;8.80;99.90;;;;;;5041732;28;20057;-77
2023/04/07 09:51:34;;;;;;;17.45;12.93;;;8.80;99.90;;;;;;5015314;28;20053;-75
2023/04/07 09:54:36;;;;;;;18.08;12.80;;;8.10;99.90;;;;;;5026115;28;20127;-75
2023/04/07 09:57:17;;;;;;;17.65;12.65;;;8.80;99.90;;;;;;5021572;28;20774;-76
2023/04/07 10:00:00;;;;;;;16.00;11.82;;;8.90;99.90;;;;;;5036295;28;20059;-75
2023/04/07 10:02:26;;;;;;;16.50;12.23;;;9.00;99.90;;;;;;5035689;28;20048;-71
2023/04/07 10:04:51;;;;;;;15.07;11.82;;;9.00;99.90;;;;;;5016462;28;20056;-70
2023/04/07 10:07:19;;;;;;;17.27;11.23;;;9.00;99.90;;;;;;5021974;28;20437;-76
2023/04/07 10:09:48;;;;;;;13.88;10.68;;;9.00;99.90;;;;;;5022493;28;20044;-74
2023/04/07 10:12:16;;;;;;;15.77;10.30;;;9.00;99.90;;;;;;5035664;28;20057;-76
2023/04/07 10:14:45;;;;;;;13.75;10.32;;;9.00;99.90;;;;;;5021810;28;20128;-74
2023/04/07 10:17:19;;;;;;;13.95;9.32;;;9.10;99.90;;;;;;5036944;28;20080;-76
2023/04/07 10:19:47;;;;;;;13.75;9.82;;;9.00;99.90;;;;;;5021375;28;20044;-76
2023/04/07 10:22:20;;;;;;;13.35;9.60;;;9.10;99.90;;;;;;5005249;28;20049;-75
2023/04/07 10:25:09;;;;;;;14.43;9.75;;;9.10;99.90;;;;;;5035812;28;20067;-74
2023/04/07 10:28:03;;;;;;;12.95;9.70;;;9.20;99.90;;;;;;5037441;28;20055;-73
2023/04/07 10:30:34;;;;;;;13.10;9.25;;;9.20;99.90;;;;;;5037161;28;20057;-71
2023/04/07 10:33:00;;;;;;;12.40;9.60;;;9.20;99.90;;;;;;5052088;28;20053;-71
2023/04/07 10:36:06;;;;;;;11.32;8.35;;;9.20;99.90;;;;;;5036388;28;20056;-73
2023/04/07 10:38:40;;;;;;;10.43;8.07;;;9.20;99.90;;;;;;5019432;28;20512;-76
2023/04/07 10:41:38;;;;;;;14.52;9.13;;;9.20;99.90;;;;;;5036195;28;20051;-71
2023/04/07 10:44:06;;;;;;;10.82;7.90;;;9.20;99.90;;;;;;5052627;28;20060;-71
2023/04/07 10:46:45;;;;;;;9.93;7.85;;;9.20;99.90;;;;;;5035879;28;20106;-73
2023/04/07 10:49:12;;;;;;;10.07;7.43;;;9.30;99.90;;;;;;5053447;28;20743;-71
2023/04/07 10:51:38;;;;;;;9.23;7.57;;;9.30;99.90;;;;;;5035461;28;20041;-71
2023/04/07 10:54:21;;;;;;;10.50;7.55;;;9.40;99.90;;;;;;5022318;28;20041;-71
2023/04/07 10:57:02;;;;;;;9.95;7.60;;;9.40;99.90;;;;;;5021675;28;20045;-72
2023/04/07 10:59:32;;;;;;;8.48;7.05;;;9.50;99.90;;;;;;5058832;28;20098;-72
2023/04/07 11:02:16;;;;;;;11.15;7.53;;;9.50;99.90;;;;;;5039723;28;20061;-76
2023/04/07 11:04:46;;;;;;;10.45;8.43;;;9.50;99.90;;;;;;5042874;28;20150;-71
2023/04/07 11:07:15;;;;;;;12.40;8.35;;;9.50;99.90;;;;;;5045378;28;20135;-71
2023/04/07 11:09:44;;;;;;;12.27;9.52;;;9.50;99.90;;;;;;5031247;28;20053;-72
2023/04/07 11:12:23;;;;;;;12.98;10.48;;;9.50;99.90;;;;;;5062209;28;20673;-72
2023/04/07 11:14:49;;;;;;;12.90;10.30;;;9.60;99.90;;;;;;5041180;28;20037;-71
2023/04/07 11:17:16;;;;;;;13.07;10.40;;;9.60;99.90;;;;;;5024008;28;20586;-73
2023/04/07 11:19:55;;;;;;;11.65;10.02;;;9.30;99.90;;;;;;5025265;28;20329;-72
2023/04/07 11:22:25;;;;;;;12.82;9.95;;;9.60;99.90;;;;;;5038232;28;20045;-71
2023/04/07 11:24:53;;;;;;;14.10;11.20;;;9.70;99.90;;;;;;5020484;28;20056;-71
2023/04/07 11:27:20;;;;;;;13.40;10.77;;;9.70;99.90;;;;;;5010093;28;20061;-70
2023/04/07 11:29:46;;;;;;;15.27;12.48;;;9.70;99.90;;;;;;5041207;28;20496;-72
2023/04/07 11:32:13;;;;;;;17.00;13.13;;;9.70;99.90;;;;;;5026066;28;20546;-70
2023/04/07 11:34:40;;;;;;;16.77;12.45;;;9.80;99.90;;;;;;5025001;28;20102;-71
2023/04/07 11:37:27;;;;;;;17.30;13.52;;;9.80;99.90;;;;;;5041839;28;20045;-71
2023/04/07 11:39:54;;;;;;;15.63;12.57;;;9.70;99.90;;;;;;5041876;28;20061;-71
2023/04/07 11:42:33;;;;;;;16.38;12.38;;;9.70;99.90;;;;;;5041498;28;20083;-70
2023/04/07 11:44:59;;;;;;;16.90;13.20;;;9.70;99.90;;;;;;5040338;28;20049;-71
2023/04/07 11:47:39;;;;;;;16.10;12.95;;;9.70;99.90;;;;;;5038422;28;20451;-71
2023/04/07 11:50:06;;;;;;;16.92;12.40;;;9.70;99.90;;;;;;5036819;28;20084;-69
2023/04/07 11:52:46;;;;;;;17.40;13.70;;;9.70;99.90;;;;;;5040115;28;20087;-71
2023/04/07 11:55:25;;;;;;;16.08;12.82;;;9.70;99.90;;;;;;5043874;28;20552;-70
2023/04/07 11:57:52;;;;;;;17.48;14.15;;;9.70;99.90;;;;;;5059066;28;20071;-71
2023/04/07 12:00:21;;;;;;;16.75;13.18;;;9.70;99.90;;;;;;5041076;28;20049;-71
2023/04/07 12:02:47;;;;;;;17.85;12.88;;;9.70;99.90;;;;;;5039339;28;20110;-70
2023/04/07 12:05:17;;;;;;;17.30;13.10;;;9.60;99.90;;;;;;5042754;28;20040;-70
2023/04/07 12:07:56;;;;;;;17.30;13.80;;;9.60;99.90;;;;;;5048790;28;20131;-70
2023/04/07 12:10:27;;;;;;;17.92;12.95;;;9.60;99.90;;;;;;5044641;28;20411;-72
2023/04/07 12:12:54;;;;;;;16.67;13.57;;;9.70;99.90;;;;;;5014836;28;20056;-71
2023/04/07 12:15:20;;;;;;;15.63;12.65;;;9.70;99.90;;;;;;5046234;28;20086;-71
2023/04/07 12:17:48;;;;;;;14.90;11.65;;;9.70;99.90;;;;;;5022415;28;20049;-70
2023/04/07 12:20:16;;;;;;;14.27;11.45;;;9.80;99.90;;;;;;5019707;28;20045;-73
2023/04/07 12:22:48;;;;;;;13.35;11.07;;;9.70;99.90;;;;;;5020758;28;20087;-70
2023/04/07 12:25:14;;;;;;;13.57;11.98;;;9.80;99.90;;;;;;5022398;28;20064;-72
2023/04/07 12:27:41;;;;;;;13.95;10.82;;;9.70;99.90;;;;;;5052103;28;20360;-69
2023/04/07 12:30:07;;;;;;;14.65;11.95;;;9.70;99.90;;;;;;4998750;28;20097;-71
2023/04/07 12:32:34;;;;;;;12.93;11.25;;;9.70;99.90;;;;;;5035691;28;20045;-70
2023/04/07 12:35:00;;;;;;;13.77;11.05;;;9.70;99.90;;;;;;5024352;28;20056;-71
2023/04/07 12:37:26;;;;;;;14.10;11.38;;;9.70;99.90;;;;;;5007308;28;20037;-73
2023/04/07 12:39:52;;;;;;;13.38;11.57;;;9.70;99.90;;;;;;5037197;28;20128;-71
2023/04/07 12:42:17;;;;;;;12.75;11.07;;;9.80;99.90;;;;;;5018517;28;20051;-71
2023/04/07 12:44:43;;;;;;;13.52;11.18;;;9.80;99.90;;;;;;5035243;28;20484;-71
2023/04/07 12:47:11;;;;;;;14.63;10.60;;;9.90;99.90;;;;;;5020743;28;20127;-72
2023/04/07 12:49:37;;;;;;;14.95;11.38;;;10.00;99.90;;;;;;5006920;28;20037;-72